createdAt,value
2018-09-06T00:00:52.761Z,15.76
2018-09-06T00:03:22.384Z,15.72
2018-09-06T00:05:51.907Z,15.72
2018-09-06T00:08:21.394Z,15.67
2018-09-06T00:10:51.024Z,15.74
2018-09-06T00:13:20.561Z,15.81
2018-09-06T00:15:50.027Z,15.75
2018-09-06T00:18:19.508Z,15.84
2018-09-06T00:20:49.029Z,15.92
2018-09-06T00:23:18.571Z,15.87
2018-09-06T00:25:48.112Z,15.81
2018-09-06T00:28:17.593Z,15.88
2018-09-06T00:30:47.187Z,15.92
2018-09-06T00:33:16.690Z,15.85
2018-09-06T00:35:46.164Z,15.83
2018-09-06T00:38:15.697Z,15.77
2018-09-06T00:40:45.184Z,15.78
2018-09-06T00:43:14.644Z,15.70
2018-09-06T00:45:44.203Z,15.61
2018-09-06T00:48:13.731Z,15.53
2018-09-06T00:50:43.241Z,15.46
2018-09-06T00:53:12.713Z,15.54
2018-09-06T00:55:42.198Z,15.46
2018-09-06T00:58:11.684Z,15.54
2018-09-06T01:00:41.154Z,15.48
2018-09-06T01:03:10.624Z,15.49
2018-09-06T01:05:40.109Z,15.46
2018-09-06T01:08:09.625Z,15.52
2018-09-06T01:10:39.120Z,15.41
2018-09-06T01:13:08.640Z,15.39
2018-09-06T01:15:38.146Z,15.43
2018-09-06T01:18:07.650Z,15.37
2018-09-06T01:20:37.166Z,15.27
2018-09-06T01:23:06.954Z,15.31
2018-09-06T01:25:41.789Z,15.36
2018-09-06T01:28:11.286Z,15.30
2018-09-06T01:30:40.802Z,15.19
2018-09-06T01:33:10.234Z,15.26
2018-09-06T01:35:43.869Z,15.19
2018-09-06T01:38:13.333Z,15.18
2018-09-06T01:40:42.766Z,15.20
2018-09-06T01:43:12.276Z,15.18
2018-09-06T01:45:41.762Z,15.13
2018-09-06T01:48:11.267Z,15.16
2018-09-06T01:50:40.722Z,15.14
2018-09-06T01:53:10.253Z,15.13
2018-09-06T01:55:39.779Z,15.22
2018-09-06T01:58:09.250Z,15.11
2018-09-06T02:00:38.734Z,15.03
2018-09-06T02:03:08.331Z,15.02
2018-09-06T02:05:38.197Z,14.98
2018-09-06T02:08:08.542Z,14.95
2018-09-06T02:10:38.038Z,15.02
2018-09-06T02:13:07.622Z,14.94
2018-09-06T02:15:37.061Z,14.91
2018-09-06T02:18:06.563Z,14.92
2018-09-06T02:20:35.996Z,14.86
2018-09-06T02:23:05.488Z,14.83
2018-09-06T02:25:35.051Z,14.85
2018-09-06T02:28:04.530Z,14.93
2018-09-06T02:30:34.219Z,14.89
2018-09-06T02:33:03.759Z,14.95
2018-09-06T02:35:33.279Z,14.91
2018-09-06T02:38:02.734Z,14.88
2018-09-06T02:40:37.441Z,14.89
2018-09-06T02:43:09.129Z,14.78
2018-09-06T02:45:38.609Z,14.80
2018-09-06T02:48:08.144Z,14.83
2018-09-06T02:50:42.952Z,14.90
2018-09-06T02:53:12.650Z,14.78
2018-09-06T02:55:42.521Z,14.71
2018-09-06T02:58:12.044Z,14.76
2018-09-06T03:00:41.597Z,14.80
2018-09-06T03:03:11.057Z,14.76
2018-09-06T03:05:40.523Z,14.82
2018-09-06T03:08:10.012Z,14.78
2018-09-06T03:10:43.933Z,14.72
2018-09-06T03:13:13.361Z,14.67
2018-09-06T03:15:42.882Z,14.69
2018-09-06T03:18:12.424Z,14.71
2018-09-06T03:20:41.879Z,14.73
2018-09-06T03:23:11.400Z,14.65
2018-09-06T03:25:40.810Z,14.60
2018-09-06T03:28:10.266Z,14.65
2018-09-06T03:30:39.819Z,14.71
2018-09-06T03:33:09.276Z,14.66
2018-09-06T03:35:38.738Z,14.61
2018-09-06T03:38:08.265Z,14.55
2018-09-06T03:40:37.706Z,14.60
2018-09-06T03:43:07.418Z,14.67
2018-09-06T03:45:36.877Z,14.62
2018-09-06T03:48:06.324Z,14.45
2018-09-06T03:50:35.766Z,14.51
2018-09-06T03:53:05.219Z,14.42
2018-09-06T03:55:34.684Z,14.37
2018-09-06T03:58:04.217Z,14.47
2018-09-06T04:00:33.665Z,14.45
2018-09-06T04:03:03.200Z,14.42
2018-09-06T04:05:32.660Z,14.43
2018-09-06T04:08:02.137Z,14.36
2018-09-06T04:10:31.734Z,14.39
2018-09-06T04:13:01.804Z,14.33
2018-09-06T04:15:31.381Z,14.50
2018-09-06T04:18:00.956Z,14.50
2018-09-06T04:20:30.526Z,14.35
2018-09-06T04:23:00.502Z,14.43
2018-09-06T04:25:30.005Z,14.45
2018-09-06T04:27:59.472Z,14.42
2018-09-06T04:30:29.026Z,14.40
2018-09-06T04:32:58.620Z,14.32
2018-09-06T04:35:28.169Z,14.35
2018-09-06T04:37:57.746Z,14.35
2018-09-06T04:40:28.024Z,14.33
2018-09-06T04:42:57.793Z,14.37
2018-09-06T04:45:27.801Z,14.36
2018-09-06T04:47:57.289Z,14.26
2018-09-06T04:50:26.835Z,14.32
2018-09-06T04:52:56.242Z,14.30
2018-09-06T04:55:25.875Z,14.38
2018-09-06T04:57:55.428Z,14.36
2018-09-06T05:00:24.929Z,14.33
2018-09-06T05:02:54.411Z,14.24
2018-09-06T05:05:23.922Z,14.38
2018-09-06T05:07:53.455Z,14.30
2018-09-06T05:10:22.905Z,14.25
2018-09-06T05:12:52.889Z,14.31
2018-09-06T05:15:22.516Z,14.38
2018-09-06T05:17:52.015Z,14.37
2018-09-06T05:20:21.487Z,14.37
2018-09-06T05:22:51.076Z,14.49
2018-09-06T05:25:20.715Z,14.43
2018-09-06T05:27:50.249Z,14.36
2018-09-06T05:30:19.834Z,14.42
2018-09-06T05:32:49.413Z,14.45
2018-09-06T05:35:18.964Z,14.44
2018-09-06T05:37:48.548Z,14.44
2018-09-06T05:40:18.133Z,14.44
2018-09-06T05:42:48.000Z,14.48
2018-09-06T05:45:17.444Z,14.55
2018-09-06T05:47:51.104Z,14.63
2018-09-06T05:50:20.561Z,14.56
2018-09-06T05:52:50.722Z,14.58
2018-09-06T05:55:20.379Z,14.63
2018-09-06T05:57:49.830Z,14.71
2018-09-06T06:00:24.461Z,14.77
2018-09-06T06:02:55.445Z,14.81
2018-09-06T06:05:25.169Z,14.99
2018-09-06T06:08:11.584Z,14.96
2018-09-06T06:10:41.077Z,15.06
2018-09-06T06:13:10.645Z,15.20
2018-09-06T06:15:40.318Z,15.23
2018-09-06T06:18:10.067Z,15.14
2018-09-06T06:20:39.816Z,15.25
2018-09-06T06:23:10.283Z,15.31
2018-09-06T06:25:39.733Z,15.38
2018-09-06T06:28:10.032Z,15.35
2018-09-06T06:30:39.513Z,15.51
2018-09-06T06:33:09.136Z,15.57
2018-09-06T06:35:38.565Z,15.64
2018-09-06T06:38:08.141Z,15.65
2018-09-06T06:40:37.646Z,15.66
2018-09-06T06:43:07.442Z,15.72
2018-09-06T06:45:37.087Z,15.76
2018-09-06T06:48:06.717Z,15.80
2018-09-06T06:50:36.207Z,15.92
2018-09-06T06:53:05.932Z,15.98
2018-09-06T06:55:35.495Z,16.13
2018-09-06T06:58:04.964Z,16.21
2018-09-06T07:00:42.493Z,16.11
2018-09-06T07:03:13.613Z,16.10
2018-09-06T07:05:44.013Z,16.17
2018-09-06T07:08:13.617Z,16.27
2018-09-06T07:10:43.100Z,16.50
2018-09-06T07:13:13.323Z,16.39
2018-09-06T07:15:42.944Z,16.52
2018-09-06T07:18:12.498Z,16.69
2018-09-06T07:20:41.999Z,16.43
2018-09-06T07:23:11.605Z,16.68
2018-09-06T07:25:41.165Z,16.81
2018-09-06T07:28:10.691Z,16.79
2018-09-06T07:30:40.205Z,16.80
2018-09-06T07:33:10.183Z,17.01
2018-09-06T07:35:39.665Z,17.07
2018-09-06T07:38:09.285Z,16.92
2018-09-06T07:40:38.762Z,16.92
2018-09-06T07:43:08.306Z,17.16
2018-09-06T07:45:37.829Z,17.36
2018-09-06T07:48:07.548Z,17.25
2018-09-06T07:50:37.132Z,17.34
2018-09-06T07:53:06.616Z,17.23
2018-09-06T07:55:36.200Z,17.29
2018-09-06T07:58:05.744Z,17.44
2018-09-06T08:00:35.268Z,17.54
2018-09-06T08:03:04.804Z,17.63
2018-09-06T08:05:34.293Z,17.69
2018-09-06T08:08:03.790Z,17.74
2018-09-06T08:10:33.323Z,17.85
2018-09-06T08:13:02.752Z,18.03
2018-09-06T08:15:32.227Z,18.12
2018-09-06T08:18:01.711Z,18.26
2018-09-06T08:20:31.485Z,18.16
2018-09-06T08:23:01.356Z,18.01
2018-09-06T08:25:31.165Z,17.87
2018-09-06T08:28:00.669Z,18.00
2018-09-06T08:30:30.232Z,18.08
2018-09-06T08:32:59.853Z,18.10
2018-09-06T08:35:29.528Z,18.24
2018-09-06T08:37:58.948Z,18.44
2018-09-06T08:40:28.697Z,18.49
2018-09-06T08:42:58.199Z,18.68
2018-09-06T08:45:27.906Z,18.85
2018-09-06T08:47:57.401Z,18.95
2018-09-06T08:50:26.924Z,18.97
2018-09-06T08:52:56.596Z,19.00
2018-09-06T08:55:26.467Z,19.02
2018-09-06T08:57:56.468Z,19.11
2018-09-06T09:00:26.162Z,19.34
2018-09-06T09:02:55.921Z,19.32
2018-09-06T09:05:25.266Z,19.32
2018-09-06T09:07:54.982Z,19.35
2018-09-06T09:10:24.500Z,19.35
2018-09-06T09:12:53.960Z,19.24
2018-09-06T09:15:24.529Z,19.30
2018-09-06T09:17:54.053Z,19.48
2018-09-06T09:20:23.658Z,19.73
2018-09-06T09:22:53.677Z,19.87
2018-09-06T09:25:23.224Z,19.84
2018-09-06T09:27:52.710Z,19.97
2018-09-06T09:30:22.183Z,20.01
2018-09-06T09:32:51.893Z,19.94
2018-09-06T09:35:21.520Z,20.06
2018-09-06T09:37:50.987Z,20.28
2018-09-06T09:40:20.553Z,20.26
2018-09-06T09:42:49.978Z,20.35
2018-09-06T09:45:19.588Z,20.34
2018-09-06T09:47:49.334Z,20.60
2018-09-06T09:52:47.565Z,20.66
2018-09-06T09:55:17.143Z,20.89
2018-09-06T09:57:46.764Z,21.00
2018-09-06T10:00:16.438Z,21.15
2018-09-06T10:02:51.080Z,21.15
2018-09-06T10:05:25.779Z,21.07
2018-09-06T10:07:56.009Z,20.92
2018-09-06T10:10:26.199Z,21.17
2018-09-06T10:12:55.722Z,21.27
2018-09-06T10:15:25.413Z,21.25
2018-09-06T10:17:54.889Z,21.28
2018-09-06T10:20:24.447Z,21.36
2018-09-06T10:22:54.060Z,21.33
2018-09-06T10:25:23.556Z,21.61
2018-09-06T10:27:53.081Z,21.69
2018-09-06T10:30:22.853Z,21.76
2018-09-06T10:32:52.345Z,21.90
2018-09-06T10:35:22.155Z,22.00
2018-09-06T10:37:51.611Z,22.29
2018-09-06T10:40:21.186Z,22.34
2018-09-06T10:42:50.842Z,22.22
2018-09-06T10:45:20.393Z,22.15
2018-09-06T10:47:49.962Z,22.24
2018-09-06T10:50:19.420Z,22.42
2018-09-06T10:52:49.024Z,22.36
2018-09-06T10:55:18.545Z,22.46
2018-09-06T10:57:48.227Z,22.51
2018-09-06T11:00:17.792Z,22.70
2018-09-06T11:02:47.998Z,22.84
2018-09-06T11:05:17.505Z,22.95
2018-09-06T11:07:47.035Z,22.83
2018-09-06T11:10:16.468Z,22.79
2018-09-06T11:12:45.963Z,22.99
2018-09-06T11:15:15.584Z,23.16
2018-09-06T11:17:45.504Z,23.05
2018-09-06T11:20:15.143Z,22.92
2018-09-06T11:22:44.779Z,23.09
2018-09-06T11:25:14.170Z,23.08
2018-09-06T11:27:44.309Z,23.12
2018-09-06T11:30:13.907Z,23.37
2018-09-06T11:32:44.216Z,23.57
2018-09-06T11:35:14.442Z,23.60
2018-09-06T11:37:44.042Z,23.79
2018-09-06T11:40:13.685Z,23.91
2018-09-06T11:42:43.147Z,24.14
2018-09-06T11:45:12.616Z,24.15
2018-09-06T11:47:42.187Z,24.27
2018-09-06T11:50:11.898Z,24.25
2018-09-06T11:52:41.468Z,24.23
2018-09-06T11:55:11.113Z,24.45
2018-09-06T11:57:40.897Z,24.81
2018-09-06T12:00:10.369Z,24.81
2018-09-06T12:02:39.986Z,24.86
2018-09-06T12:05:09.617Z,24.63
2018-09-06T12:07:39.146Z,24.69
2018-09-06T12:10:08.979Z,24.75
2018-09-06T12:12:38.552Z,25.23
2018-09-06T12:15:08.109Z,25.23
2018-09-06T12:17:37.665Z,25.26
2018-09-06T12:20:07.499Z,25.22
2018-09-06T12:22:37.744Z,25.52
2018-09-06T12:25:07.610Z,25.73
2018-09-06T12:27:37.474Z,26.54
2018-09-06T12:30:07.629Z,26.78
2018-09-06T12:32:37.237Z,26.99
2018-09-06T12:35:06.954Z,26.39
2018-09-06T12:37:36.495Z,26.83
2018-09-06T12:40:06.165Z,27.73
2018-09-06T12:42:35.719Z,28.68
2018-09-06T12:45:05.439Z,28.96
2018-09-06T12:47:35.173Z,27.28
2018-09-06T12:50:04.714Z,26.86
2018-09-06T12:52:34.340Z,26.14
2018-09-06T12:55:03.872Z,26.92
2018-09-06T12:57:33.706Z,27.50
2018-09-06T13:00:03.361Z,28.45
2018-09-06T13:02:33.277Z,29.09
2018-09-06T13:05:03.252Z,29.74
2018-09-06T13:07:32.821Z,30.38
2018-09-06T13:10:03.580Z,30.35
2018-09-06T13:12:33.063Z,31.51
2018-09-06T13:15:02.623Z,32.63
2018-09-06T13:17:32.172Z,32.10
2018-09-06T13:20:01.634Z,31.98
2018-09-06T13:22:31.088Z,30.26
2018-09-06T13:25:00.628Z,31.03
2018-09-06T13:27:30.341Z,31.12
2018-09-06T13:30:00.005Z,31.01
2018-09-06T13:32:29.553Z,30.10
2018-09-06T13:34:59.044Z,29.33
2018-09-06T13:37:28.637Z,29.19
2018-09-06T13:39:58.143Z,30.01
2018-09-06T13:42:27.595Z,30.90
2018-09-06T13:44:57.201Z,31.25
2018-09-06T13:47:26.842Z,30.83
2018-09-06T13:49:56.402Z,31.55
2018-09-06T13:52:25.959Z,31.68
2018-09-06T13:54:55.461Z,30.27
2018-09-06T13:57:24.995Z,30.89
2018-09-06T13:59:54.625Z,31.02
2018-09-06T14:02:24.736Z,30.70
2018-09-06T14:04:55.036Z,29.58
2018-09-06T14:07:24.542Z,30.15
2018-09-06T14:09:54.270Z,30.23
2018-09-06T14:12:23.779Z,29.12
2018-09-06T14:14:53.502Z,28.02
2018-09-06T14:17:23.020Z,27.74
2018-09-06T14:19:52.726Z,28.80
2018-09-06T14:22:22.309Z,28.03
2018-09-06T14:24:51.871Z,28.11
2018-09-06T14:27:21.424Z,28.31
2018-09-06T14:29:51.045Z,27.59
2018-09-06T14:32:20.620Z,27.40
2018-09-06T14:34:50.156Z,27.21
2018-09-06T14:37:19.716Z,26.55
2018-09-06T14:39:49.231Z,26.25
2018-09-06T14:42:18.787Z,26.55
2018-09-06T14:44:48.284Z,26.48
2018-09-06T14:47:17.725Z,26.17
2018-09-06T14:49:47.356Z,26.31
2018-09-06T14:52:16.913Z,26.31
2018-09-06T14:54:46.509Z,26.08
2018-09-06T14:57:16.260Z,26.30
2018-09-06T14:59:45.778Z,26.83
2018-09-06T15:02:15.491Z,26.71
2018-09-06T15:04:45.062Z,26.47
2018-09-06T15:07:14.659Z,26.37
2018-09-06T15:09:44.418Z,26.39
2018-09-06T15:12:14.038Z,26.74
2018-09-06T15:14:43.565Z,26.33
2018-09-06T15:17:13.014Z,26.31
2018-09-06T15:19:42.560Z,26.89
2018-09-06T15:22:12.004Z,26.78
2018-09-06T15:24:41.648Z,26.97
2018-09-06T15:27:11.198Z,27.23
2018-09-06T15:29:40.740Z,27.61
2018-09-06T15:32:10.340Z,27.64
2018-09-06T15:34:40.146Z,28.03
2018-09-06T15:37:09.760Z,27.76
2018-09-06T15:39:39.290Z,27.00
2018-09-06T15:42:08.782Z,26.82
2018-09-06T15:44:38.347Z,26.70
2018-09-06T15:47:07.902Z,26.71
2018-09-06T15:49:38.049Z,26.58
2018-09-06T15:52:08.169Z,26.31
2018-09-06T15:54:37.750Z,26.33
2018-09-06T15:57:07.565Z,26.88
2018-09-06T15:59:37.260Z,27.08
2018-09-06T16:02:06.861Z,26.59
2018-09-06T16:04:36.393Z,26.81
2018-09-06T16:07:05.977Z,26.89
2018-09-06T16:09:35.548Z,26.66
2018-09-06T16:12:04.986Z,26.37
2018-09-06T16:14:34.519Z,26.47
2018-09-06T16:17:04.106Z,26.16
2018-09-06T16:19:33.816Z,26.53
2018-09-06T16:22:03.319Z,25.82
2018-09-06T16:24:32.883Z,25.90
2018-09-06T16:27:02.344Z,25.65
2018-09-06T16:29:31.962Z,25.26
2018-09-06T16:32:01.669Z,25.02
2018-09-06T16:34:31.310Z,24.83
2018-09-06T16:37:01.020Z,24.60
2018-09-06T16:39:30.634Z,24.14
2018-09-06T16:42:00.299Z,24.24
2018-09-06T16:44:29.852Z,24.09
2018-09-06T16:46:59.336Z,23.80
2018-09-06T16:49:28.770Z,23.85
2018-09-06T16:51:58.328Z,23.86
2018-09-06T16:54:27.849Z,23.68
2018-09-06T16:56:57.463Z,23.71
2018-09-06T16:59:26.940Z,23.70
2018-09-06T17:01:56.454Z,23.78
2018-09-06T17:04:26.001Z,23.82
2018-09-06T17:09:24.651Z,23.72
2018-09-06T17:11:54.207Z,23.72
2018-09-06T17:14:23.701Z,23.59
2018-09-06T17:16:53.153Z,23.45
2018-09-06T17:19:22.937Z,23.41
2018-09-06T17:21:52.494Z,23.29
2018-09-06T17:24:22.031Z,23.30
2018-09-06T17:26:51.500Z,23.20
2018-09-06T17:29:20.976Z,23.08
2018-09-06T17:31:51.366Z,22.95
2018-09-06T17:34:20.879Z,22.93
2018-09-06T17:36:50.392Z,22.91
2018-09-06T17:39:20.039Z,22.81
2018-09-06T17:41:49.500Z,22.82
2018-09-06T17:44:19.384Z,22.60
2018-09-06T17:46:49.792Z,22.73
2018-09-06T17:49:19.372Z,22.63
2018-09-06T17:51:49.130Z,22.63
2018-09-06T17:54:18.779Z,22.55
2018-09-06T17:56:48.607Z,22.48
2018-09-06T17:59:18.310Z,22.50
2018-09-06T18:01:47.982Z,22.52
2018-09-06T18:04:17.550Z,22.37
2018-09-06T18:06:47.121Z,22.38
2018-09-06T18:09:16.723Z,22.43
2018-09-06T18:11:46.244Z,22.50
2018-09-06T18:14:16.929Z,22.48
2018-09-06T18:16:46.470Z,22.55
2018-09-06T18:19:16.350Z,22.50
2018-09-06T18:21:46.027Z,22.33
2018-09-06T18:24:15.728Z,22.28
2018-09-06T18:26:46.187Z,22.19
2018-09-06T18:29:15.781Z,22.08
2018-09-06T18:31:45.422Z,22.06
2018-09-06T18:34:15.027Z,21.85
2018-09-06T18:36:45.133Z,21.80
2018-09-06T18:39:15.881Z,21.68
2018-09-06T18:41:45.421Z,21.57
2018-09-06T18:44:15.498Z,21.54
2018-09-06T18:46:45.027Z,21.51
2018-09-06T18:49:14.769Z,21.39
2018-09-06T18:51:44.281Z,21.37
2018-09-06T18:54:14.430Z,21.32
2018-09-06T18:56:44.381Z,21.10
2018-09-06T18:59:13.934Z,21.00
2018-09-06T19:01:43.553Z,21.02
2018-09-06T19:04:13.024Z,20.98
2018-09-06T19:06:42.733Z,21.07
2018-09-06T19:09:13.381Z,21.09
2018-09-06T19:11:43.127Z,21.00
2018-09-06T19:14:12.680Z,21.03
2018-09-06T19:16:42.303Z,20.86
2018-09-06T19:19:11.780Z,20.90
2018-09-06T19:21:41.374Z,20.79
2018-09-06T19:24:10.892Z,20.70
2018-09-06T19:26:40.377Z,20.58
2018-09-06T19:29:09.946Z,20.62
2018-09-06T19:31:39.513Z,20.61
2018-09-06T19:34:09.570Z,20.43
2018-09-06T19:36:39.147Z,20.44
2018-09-06T19:39:12.205Z,20.37
2018-09-06T19:41:41.768Z,20.40
2018-09-06T19:44:11.246Z,20.41
2018-09-06T19:46:40.737Z,20.44
2018-09-06T19:49:10.191Z,20.33
2018-09-06T19:51:39.625Z,20.28
2018-09-06T19:54:09.136Z,20.21
2018-09-06T19:56:38.563Z,20.16
2018-09-06T19:59:08.107Z,20.18
2018-09-06T20:01:37.665Z,20.17
2018-09-06T20:04:07.199Z,20.12
2018-09-06T20:06:36.677Z,20.12
2018-09-06T20:09:07.690Z,20.09
2018-09-06T20:11:37.207Z,20.08
2018-09-06T20:14:06.730Z,20.05
2018-09-06T20:16:36.406Z,20.08
2018-09-06T20:19:06.038Z,20.08
2018-09-06T20:21:35.597Z,20.14
2018-09-06T20:24:05.119Z,20.15
2018-09-06T20:26:34.569Z,19.99
2018-09-06T20:29:04.050Z,19.99
2018-09-06T20:31:33.605Z,19.88
2018-09-06T20:34:03.042Z,19.80
2018-09-06T20:36:32.537Z,19.71
2018-09-06T20:39:02.106Z,19.68
2018-09-06T20:41:31.581Z,19.56
2018-09-06T20:44:01.078Z,19.61
2018-09-06T20:46:30.501Z,19.72
2018-09-06T20:48:59.954Z,19.65
2018-09-06T20:51:29.722Z,19.60
2018-09-06T20:53:59.217Z,19.63
2018-09-06T20:56:28.730Z,19.62
2018-09-06T20:58:58.268Z,19.62
2018-09-06T21:01:27.721Z,19.47
2018-09-06T21:03:57.235Z,19.28
2018-09-06T21:06:26.729Z,19.12
2018-09-06T21:08:56.230Z,19.04
2018-09-06T21:11:25.843Z,18.94
2018-09-06T21:13:55.355Z,18.87
2018-09-06T21:16:24.889Z,18.85
2018-09-06T21:18:54.350Z,18.82
2018-09-06T21:21:23.861Z,18.83
2018-09-06T21:23:53.432Z,18.86
2018-09-06T21:26:22.927Z,18.87
2018-09-06T21:28:52.433Z,18.86
2018-09-06T21:31:21.950Z,18.87
2018-09-06T21:33:51.497Z,18.87
2018-09-06T21:36:21.862Z,18.84
2018-09-06T21:38:51.369Z,18.87
2018-09-06T21:41:20.849Z,18.88
2018-09-06T21:43:50.308Z,18.87
2018-09-06T21:46:19.821Z,18.80
2018-09-06T21:48:49.295Z,18.76
2018-09-06T21:51:18.813Z,18.61
2018-09-06T21:53:48.242Z,18.62
2018-09-06T21:56:17.782Z,18.45
2018-09-06T21:58:47.237Z,18.42
2018-09-06T22:01:16.692Z,18.41
2018-09-06T22:03:52.741Z,18.39
2018-09-06T22:06:22.195Z,18.35
2018-09-06T22:08:51.663Z,18.38
2018-09-06T22:11:21.408Z,18.32
2018-09-06T22:13:50.903Z,18.19
2018-09-06T22:16:20.400Z,18.13
2018-09-06T22:18:49.943Z,18.09
2018-09-06T22:21:19.436Z,18.14
2018-09-06T22:23:48.960Z,18.17
2018-09-06T22:26:18.459Z,18.22
2018-09-06T22:28:47.917Z,18.21
2018-09-06T22:31:17.380Z,18.20
2018-09-06T22:33:46.885Z,18.20
2018-09-06T22:36:16.337Z,18.21
2018-09-06T22:38:45.877Z,18.11
2018-09-06T22:41:15.344Z,18.02
2018-09-06T22:43:44.817Z,17.99
2018-09-06T22:46:14.282Z,18.02
2018-09-06T22:48:43.811Z,18.06
2018-09-06T22:51:13.276Z,18.05
2018-09-06T22:53:42.698Z,18.07
2018-09-06T22:56:12.143Z,18.06
2018-09-06T22:58:41.582Z,18.05
2018-09-06T23:01:11.097Z,18.01
2018-09-06T23:03:42.775Z,18.04
2018-09-06T23:06:12.375Z,18.01
2018-09-06T23:08:41.936Z,18.06
2018-09-06T23:11:11.437Z,18.02
2018-09-06T23:13:40.894Z,17.98
2018-09-06T23:16:10.401Z,17.92
2018-09-06T23:18:39.944Z,17.96
2018-09-06T23:21:09.422Z,17.96
2018-09-06T23:23:38.943Z,17.93
2018-09-06T23:26:08.710Z,17.88
2018-09-06T23:28:38.192Z,17.88
2018-09-06T23:31:07.970Z,17.86
2018-09-06T23:33:37.460Z,17.85
2018-09-06T23:36:07.038Z,17.86
2018-09-06T23:38:36.509Z,17.82
2018-09-06T23:41:05.996Z,17.95
2018-09-06T23:43:35.564Z,17.82
2018-09-06T23:46:05.059Z,17.60
2018-09-06T23:48:34.510Z,17.61
2018-09-06T23:51:03.993Z,17.44
2018-09-06T23:53:33.489Z,17.49
2018-09-06T23:56:03.068Z,17.59
2018-09-06T23:58:32.471Z,17.61
